sensor_id;sensor_type;location;lat;lon;timestamp;temperature;humidity
12229;DHT22;6177;52.402;9.800;2022-12-07T00:02:31;5.40;88.40
12229;DHT22;6177;52.402;9.800;2022-12-07T00:05:16;5.40;88.60
12229;DHT22;6177;52.402;9.800;2022-12-07T00:08:01;5.40;88.40
12229;DHT22;6177;52.402;9.800;2022-12-07T00:10:46;5.40;88.30
12229;DHT22;6177;52.402;9.800;2022-12-07T00:13:32;5.40;88.40
12229;DHT22;6177;52.402;9.800;2022-12-07T00:16:19;5.40;88.60
12229;DHT22;6177;52.402;9.800;2022-12-07T00:19:05;5.40;88.60
12229;DHT22;6177;52.402;9.800;2022-12-07T00:21:50;5.50;88.00
12229;DHT22;6177;52.402;9.800;2022-12-07T00:24:35;5.50;87.60
12229;DHT22;6177;52.402;9.800;2022-12-07T00:27:20;5.50;87.60
12229;DHT22;6177;52.402;9.800;2022-12-07T00:30:06;5.50;88.00
12229;DHT22;6177;52.402;9.800;2022-12-07T00:32:51;5.40;88.40
12229;DHT22;6177;52.402;9.800;2022-12-07T00:35:36;5.50;88.50
12229;DHT22;6177;52.402;9.800;2022-12-07T00:38:22;5.60;88.00
12229;DHT22;6177;52.402;9.800;2022-12-07T00:41:11;5.60;87.80
12229;DHT22;6177;52.402;9.800;2022-12-07T00:43:57;5.60;87.90
12229;DHT22;6177;52.402;9.800;2022-12-07T00:46:42;5.60;87.80
12229;DHT22;6177;52.402;9.800;2022-12-07T00:49:27;5.60;87.70
12229;DHT22;6177;52.402;9.800;2022-12-07T00:52:12;5.60;87.50
12229;DHT22;6177;52.402;9.800;2022-12-07T00:54:57;5.60;87.50
12229;DHT22;6177;52.402;9.800;2022-12-07T00:57:42;5.60;87.10
12229;DHT22;6177;52.402;9.800;2022-12-07T01:00:27;5.60;87.20
12229;DHT22;6177;52.402;9.800;2022-12-07T01:03:14;5.60;87.40
12229;DHT22;6177;52.402;9.800;2022-12-07T01:06:00;5.70;87.20
12229;DHT22;6177;52.402;9.800;2022-12-07T01:08:45;5.70;87.40
12229;DHT22;6177;52.402;9.800;2022-12-07T01:11:31;5.70;86.80
12229;DHT22;6177;52.402;9.800;2022-12-07T01:14:16;5.70;86.80
12229;DHT22;6177;52.402;9.800;2022-12-07T01:17:01;5.70;87.20
12229;DHT22;6177;52.402;9.800;2022-12-07T01:19:46;5.70;86.90
12229;DHT22;6177;52.402;9.800;2022-12-07T01:22:31;5.70;87.40
12229;DHT22;6177;52.402;9.800;2022-12-07T01:25:20;5.70;87.40
12229;DHT22;6177;52.402;9.800;2022-12-07T01:28:05;5.80;86.90
12229;DHT22;6177;52.402;9.800;2022-12-07T01:31:04;5.80;87.00
12229;DHT22;6177;52.402;9.800;2022-12-07T01:33:55;5.80;87.00
12229;DHT22;6177;52.402;9.800;2022-12-07T01:36:40;5.80;87.40
12229;DHT22;6177;52.402;9.800;2022-12-07T01:39:25;5.80;87.50
12229;DHT22;6177;52.402;9.800;2022-12-07T01:42:12;5.70;88.20
12229;DHT22;6177;52.402;9.800;2022-12-07T01:48:18;5.70;88.40
12229;DHT22;6177;52.402;9.800;2022-12-07T01:51:10;5.70;89.10
12229;DHT22;6177;52.402;9.800;2022-12-07T01:53:56;5.60;89.30
12229;DHT22;6177;52.402;9.800;2022-12-07T01:56:46;5.70;88.80
12229;DHT22;6177;52.402;9.800;2022-12-07T01:59:33;5.60;88.90
12229;DHT22;6177;52.402;9.800;2022-12-07T02:02:24;5.60;89.00
12229;DHT22;6177;52.402;9.800;2022-12-07T02:05:11;5.50;88.80
12229;DHT22;6177;52.402;9.800;2022-12-07T02:07:57;5.30;88.90
12229;DHT22;6177;52.402;9.800;2022-12-07T02:10:42;5.20;88.90
12229;DHT22;6177;52.402;9.800;2022-12-07T02:13:32;5.20;89.60
12229;DHT22;6177;52.402;9.800;2022-12-07T02:22:51;5.40;89.70
12229;DHT22;6177;52.402;9.800;2022-12-07T02:26:05;5.40;89.30
12229;DHT22;6177;52.402;9.800;2022-12-07T02:29:18;5.30;89.10
12229;DHT22;6177;52.402;9.800;2022-12-07T02:32:15;5.30;89.20
12229;DHT22;6177;52.402;9.800;2022-12-07T02:35:06;5.30;89.30
12229;DHT22;6177;52.402;9.800;2022-12-07T02:41:12;5.30;89.00
12229;DHT22;6177;52.402;9.800;2022-12-07T02:44:02;5.30;88.70
12229;DHT22;6177;52.402;9.800;2022-12-07T02:46:53;5.20;88.70
12229;DHT22;6177;52.402;9.800;2022-12-07T02:49:39;5.10;88.90
12229;DHT22;6177;52.402;9.800;2022-12-07T02:52:25;5.00;89.20
12229;DHT22;6177;52.402;9.800;2022-12-07T02:55:11;4.90;89.40
12229;DHT22;6177;52.402;9.800;2022-12-07T02:58:02;4.90;90.10
12229;DHT22;6177;52.402;9.800;2022-12-07T03:07:27;5.20;89.90
12229;DHT22;6177;52.402;9.800;2022-12-07T03:13:22;5.30;88.40
12229;DHT22;6177;52.402;9.800;2022-12-07T03:16:26;5.30;88.40
12229;DHT22;6177;52.402;9.800;2022-12-07T03:19:15;5.40;87.60
12229;DHT22;6177;52.402;9.800;2022-12-07T03:22:09;5.40;87.10
12229;DHT22;6177;52.402;9.800;2022-12-07T03:24:58;5.40;87.10
12229;DHT22;6177;52.402;9.800;2022-12-07T03:27:54;5.40;87.00
12229;DHT22;6177;52.402;9.800;2022-12-07T03:34:20;5.50;86.40
12229;DHT22;6177;52.402;9.800;2022-12-07T03:37:23;5.50;86.30
12229;DHT22;6177;52.402;9.800;2022-12-07T03:40:26;5.50;86.10
12229;DHT22;6177;52.402;9.800;2022-12-07T03:43:13;5.50;86.40
12229;DHT22;6177;52.402;9.800;2022-12-07T03:52:47;5.40;86.20
12229;DHT22;6177;52.402;9.800;2022-12-07T03:55:39;5.40;85.80
12229;DHT22;6177;52.402;9.800;2022-12-07T03:58:26;5.30;85.70
12229;DHT22;6177;52.402;9.800;2022-12-07T04:01:12;5.20;86.10
12229;DHT22;6177;52.402;9.800;2022-12-07T04:03:57;5.20;86.50
12229;DHT22;6177;52.402;9.800;2022-12-07T04:06:42;5.20;86.20
12229;DHT22;6177;52.402;9.800;2022-12-07T04:09:27;5.20;86.00
12229;DHT22;6177;52.402;9.800;2022-12-07T04:12:12;5.10;86.30
12229;DHT22;6177;52.402;9.800;2022-12-07T04:14:57;5.20;86.00
12229;DHT22;6177;52.402;9.800;2022-12-07T04:17:42;5.20;86.00
12229;DHT22;6177;52.402;9.800;2022-12-07T04:20:27;5.20;86.00
12229;DHT22;6177;52.402;9.800;2022-12-07T04:23:12;5.20;86.00
12229;DHT22;6177;52.402;9.800;2022-12-07T04:25:57;5.10;86.40
12229;DHT22;6177;52.402;9.800;2022-12-07T04:28:42;5.10;86.40
12229;DHT22;6177;52.402;9.800;2022-12-07T04:31:27;5.10;86.80
12229;DHT22;6177;52.402;9.800;2022-12-07T04:34:13;5.20;86.40
12229;DHT22;6177;52.402;9.800;2022-12-07T04:36:58;5.10;86.60
12229;DHT22;6177;52.402;9.800;2022-12-07T04:39:43;5.10;86.70
12229;DHT22;6177;52.402;9.800;2022-12-07T04:42:29;5.20;86.50
12229;DHT22;6177;52.402;9.800;2022-12-07T04:45:14;5.10;86.50
12229;DHT22;6177;52.402;9.800;2022-12-07T04:47:59;5.20;86.20
12229;DHT22;6177;52.402;9.800;2022-12-07T04:51:04;5.10;86.20
12229;DHT22;6177;52.402;9.800;2022-12-07T04:53:48;5.20;85.40
12229;DHT22;6177;52.402;9.800;2022-12-07T04:56:34;5.20;85.40
12229;DHT22;6177;52.402;9.800;2022-12-07T04:59:19;5.20;85.40
12229;DHT22;6177;52.402;9.800;2022-12-07T05:02:04;5.20;85.30
12229;DHT22;6177;52.402;9.800;2022-12-07T05:04:49;5.20;84.50
12229;DHT22;6177;52.402;9.800;2022-12-07T05:07:34;5.30;84.30
12229;DHT22;6177;52.402;9.800;2022-12-07T05:10:19;5.30;84.00
12229;DHT22;6177;52.402;9.800;2022-12-07T05:13:04;5.40;83.10
12229;DHT22;6177;52.402;9.800;2022-12-07T05:15:49;5.30;82.80
12229;DHT22;6177;52.402;9.800;2022-12-07T05:18:34;5.20;83.40
12229;DHT22;6177;52.402;9.800;2022-12-07T05:21:19;5.20;83.80
12229;DHT22;6177;52.402;9.800;2022-12-07T05:24:05;5.20;83.90
12229;DHT22;6177;52.402;9.800;2022-12-07T05:26:50;5.20;84.00
12229;DHT22;6177;52.402;9.800;2022-12-07T05:29:35;5.20;83.20
12229;DHT22;6177;52.402;9.800;2022-12-07T05:32:20;5.20;83.10
12229;DHT22;6177;52.402;9.800;2022-12-07T05:35:05;5.20;83.10
12229;DHT22;6177;52.402;9.800;2022-12-07T05:37:50;5.20;82.90
12229;DHT22;6177;52.402;9.800;2022-12-07T05:40:36;5.10;83.00
12229;DHT22;6177;52.402;9.800;2022-12-07T05:43:21;5.10;82.90
12229;DHT22;6177;52.402;9.800;2022-12-07T05:46:06;5.00;83.30
12229;DHT22;6177;52.402;9.800;2022-12-07T05:48:51;4.90;83.30
12229;DHT22;6177;52.402;9.800;2022-12-07T05:51:36;4.90;83.60
12229;DHT22;6177;52.402;9.800;2022-12-07T05:54:21;4.90;83.70
12229;DHT22;6177;52.402;9.800;2022-12-07T05:57:07;4.90;83.90
12229;DHT22;6177;52.402;9.800;2022-12-07T05:59:52;5.00;83.20
12229;DHT22;6177;52.402;9.800;2022-12-07T06:02:37;5.00;83.20
12229;DHT22;6177;52.402;9.800;2022-12-07T06:05:22;5.00;83.30
12229;DHT22;6177;52.402;9.800;2022-12-07T06:08:07;5.00;83.00
12229;DHT22;6177;52.402;9.800;2022-12-07T06:10:52;5.00;83.30
12229;DHT22;6177;52.402;9.800;2022-12-07T06:13:57;5.00;82.90
12229;DHT22;6177;52.402;9.800;2022-12-07T06:16:43;4.90;83.60
12229;DHT22;6177;52.402;9.800;2022-12-07T06:19:28;5.10;82.70
12229;DHT22;6177;52.402;9.800;2022-12-07T06:22:13;5.00;82.90
12229;DHT22;6177;52.402;9.800;2022-12-07T06:24:59;5.10;82.20
12229;DHT22;6177;52.402;9.800;2022-12-07T06:27:43;5.10;82.40
12229;DHT22;6177;52.402;9.800;2022-12-07T06:30:29;5.00;82.30
12229;DHT22;6177;52.402;9.800;2022-12-07T06:33:14;5.10;81.70
12229;DHT22;6177;52.402;9.800;2022-12-07T06:35:59;5.20;81.10
12229;DHT22;6177;52.402;9.800;2022-12-07T06:38:44;5.10;81.40
12229;DHT22;6177;52.402;9.800;2022-12-07T06:41:29;5.10;81.10
12229;DHT22;6177;52.402;9.800;2022-12-07T06:44:15;5.00;81.60
12229;DHT22;6177;52.402;9.800;2022-12-07T06:46:59;4.80;82.50
12229;DHT22;6177;52.402;9.800;2022-12-07T06:49:44;4.80;82.90
12229;DHT22;6177;52.402;9.800;2022-12-07T06:52:30;4.80;82.50
12229;DHT22;6177;52.402;9.800;2022-12-07T06:55:15;4.80;82.70
12229;DHT22;6177;52.402;9.800;2022-12-07T06:58:00;4.90;82.20
12229;DHT22;6177;52.402;9.800;2022-12-07T07:00:48;4.80;82.40
12229;DHT22;6177;52.402;9.800;2022-12-07T07:03:34;4.90;82.50
12229;DHT22;6177;52.402;9.800;2022-12-07T07:06:19;4.80;82.40
12229;DHT22;6177;52.402;9.800;2022-12-07T07:09:04;4.90;82.70
12229;DHT22;6177;52.402;9.800;2022-12-07T07:11:49;4.70;83.20
12229;DHT22;6177;52.402;9.800;2022-12-07T07:14:34;4.60;84.00
12229;DHT22;6177;52.402;9.800;2022-12-07T07:17:19;4.50;84.60
12229;DHT22;6177;52.402;9.800;2022-12-07T07:20:05;4.50;85.10
12229;DHT22;6177;52.402;9.800;2022-12-07T07:22:50;4.40;85.50
12229;DHT22;6177;52.402;9.800;2022-12-07T07:25:39;4.40;85.70
12229;DHT22;6177;52.402;9.800;2022-12-07T07:28:24;4.40;86.10
12229;DHT22;6177;52.402;9.800;2022-12-07T07:31:09;4.40;86.40
12229;DHT22;6177;52.402;9.800;2022-12-07T07:33:54;4.40;85.90
12229;DHT22;6177;52.402;9.800;2022-12-07T07:36:39;4.50;85.70
12229;DHT22;6177;52.402;9.800;2022-12-07T07:39:24;4.50;85.70
12229;DHT22;6177;52.402;9.800;2022-12-07T07:42:09;4.50;85.60
12229;DHT22;6177;52.402;9.800;2022-12-07T07:44:56;4.50;85.50
12229;DHT22;6177;52.402;9.800;2022-12-07T07:47:41;4.60;85.70
12229;DHT22;6177;52.402;9.800;2022-12-07T07:50:26;4.60;85.20
12229;DHT22;6177;52.402;9.800;2022-12-07T07:53:11;4.50;85.50
12229;DHT22;6177;52.402;9.800;2022-12-07T07:55:56;4.60;85.10
12229;DHT22;6177;52.402;9.800;2022-12-07T07:58:41;4.60;84.80
12229;DHT22;6177;52.402;9.800;2022-12-07T08:01:26;4.70;84.50
12229;DHT22;6177;52.402;9.800;2022-12-07T08:04:11;4.70;84.30
12229;DHT22;6177;52.402;9.800;2022-12-07T08:06:57;4.70;84.10
12229;DHT22;6177;52.402;9.800;2022-12-07T08:09:42;4.80;83.60
12229;DHT22;6177;52.402;9.800;2022-12-07T08:12:27;4.80;83.90
12229;DHT22;6177;52.402;9.800;2022-12-07T08:15:12;4.80;83.50
12229;DHT22;6177;52.402;9.800;2022-12-07T08:17:58;4.90;82.90
12229;DHT22;6177;52.402;9.800;2022-12-07T08:20:43;4.90;83.20
12229;DHT22;6177;52.402;9.800;2022-12-07T08:23:30;4.90;83.10
12229;DHT22;6177;52.402;9.800;2022-12-07T08:26:16;4.90;82.90
12229;DHT22;6177;52.402;9.800;2022-12-07T08:29:02;5.00;82.80
12229;DHT22;6177;52.402;9.800;2022-12-07T08:31:46;5.00;82.50
12229;DHT22;6177;52.402;9.800;2022-12-07T08:34:31;5.00;83.00
12229;DHT22;6177;52.402;9.800;2022-12-07T08:37:16;5.10;82.70
12229;DHT22;6177;52.402;9.800;2022-12-07T08:40:03;5.20;82.30
12229;DHT22;6177;52.402;9.800;2022-12-07T08:42:49;5.10;82.60
12229;DHT22;6177;52.402;9.800;2022-12-07T08:45:35;5.20;82.30
12229;DHT22;6177;52.402;9.800;2022-12-07T08:48:20;5.30;81.50
12229;DHT22;6177;52.402;9.800;2022-12-07T08:51:08;5.30;81.60
12229;DHT22;6177;52.402;9.800;2022-12-07T08:53:54;5.30;82.10
12229;DHT22;6177;52.402;9.800;2022-12-07T08:56:40;5.40;81.90
12229;DHT22;6177;52.402;9.800;2022-12-07T08:59:26;5.40;82.00
12229;DHT22;6177;52.402;9.800;2022-12-07T09:02:12;5.40;82.00
12229;DHT22;6177;52.402;9.800;2022-12-07T09:04:57;5.50;81.90
12229;DHT22;6177;52.402;9.800;2022-12-07T09:07:49;5.60;81.20
12229;DHT22;6177;52.402;9.800;2022-12-07T09:10:35;5.60;80.40
12229;DHT22;6177;52.402;9.800;2022-12-07T09:13:20;5.50;80.60
12229;DHT22;6177;52.402;9.800;2022-12-07T09:16:06;5.50;80.50
12229;DHT22;6177;52.402;9.800;2022-12-07T09:18:51;5.60;80.00
12229;DHT22;6177;52.402;9.800;2022-12-07T09:21:37;5.50;79.90
12229;DHT22;6177;52.402;9.800;2022-12-07T09:24:23;5.50;80.30
12229;DHT22;6177;52.402;9.800;2022-12-07T09:27:08;5.40;80.20
12229;DHT22;6177;52.402;9.800;2022-12-07T09:29:53;5.40;79.90
12229;DHT22;6177;52.402;9.800;2022-12-07T09:32:38;5.50;79.40
12229;DHT22;6177;52.402;9.800;2022-12-07T09:35:24;5.60;78.50
12229;DHT22;6177;52.402;9.800;2022-12-07T09:38:09;5.60;77.90
12229;DHT22;6177;52.402;9.800;2022-12-07T09:40:54;5.60;78.20
12229;DHT22;6177;52.402;9.800;2022-12-07T09:43:40;5.60;78.10
12229;DHT22;6177;52.402;9.800;2022-12-07T09:46:25;5.60;78.60
12229;DHT22;6177;52.402;9.800;2022-12-07T09:49:22;5.70;78.70
12229;DHT22;6177;52.402;9.800;2022-12-07T09:54:53;5.80;78.00
12229;DHT22;6177;52.402;9.800;2022-12-07T09:57:38;5.90;77.70
12229;DHT22;6177;52.402;9.800;2022-12-07T10:00:23;6.00;76.70
12229;DHT22;6177;52.402;9.800;2022-12-07T10:03:11;6.00;76.80
12229;DHT22;6177;52.402;9.800;2022-12-07T10:05:56;6.00;76.80
12229;DHT22;6177;52.402;9.800;2022-12-07T10:08:41;6.00;76.70
12229;DHT22;6177;52.402;9.800;2022-12-07T10:11:27;6.10;76.90
12229;DHT22;6177;52.402;9.800;2022-12-07T10:14:13;6.40;76.30
12229;DHT22;6177;52.402;9.800;2022-12-07T10:16:58;6.50;76.00
12229;DHT22;6177;52.402;9.800;2022-12-07T10:19:43;6.60;75.50
12229;DHT22;6177;52.402;9.800;2022-12-07T10:22:30;6.60;75.10
12229;DHT22;6177;52.402;9.800;2022-12-07T10:25:20;6.70;75.10
12229;DHT22;6177;52.402;9.800;2022-12-07T10:30:58;6.80;73.80
12229;DHT22;6177;52.402;9.800;2022-12-07T10:33:53;6.70;73.80
12229;DHT22;6177;52.402;9.800;2022-12-07T10:36:38;6.70;74.10
12229;DHT22;6177;52.402;9.800;2022-12-07T10:39:24;6.70;74.50
12229;DHT22;6177;52.402;9.800;2022-12-07T10:42:19;6.70;74.40
12229;DHT22;6177;52.402;9.800;2022-12-07T10:45:18;6.70;74.40
12229;DHT22;6177;52.402;9.800;2022-12-07T10:48:20;6.60;74.70
12229;DHT22;6177;52.402;9.800;2022-12-07T10:51:32;6.50;74.80
12229;DHT22;6177;52.402;9.800;2022-12-07T11:07:18;6.30;76.40
12229;DHT22;6177;52.402;9.800;2022-12-07T11:10:29;6.30;76.70
12229;DHT22;6177;52.402;9.800;2022-12-07T11:13:39;6.30;76.10
12229;DHT22;6177;52.402;9.800;2022-12-07T11:16:48;6.20;76.50
12229;DHT22;6177;52.402;9.800;2022-12-07T11:20:01;6.30;76.50
12229;DHT22;6177;52.402;9.800;2022-12-07T11:25:48;6.20;74.80
12229;DHT22;6177;52.402;9.800;2022-12-07T11:32:12;6.10;74.30
12229;DHT22;6177;52.402;9.800;2022-12-07T11:38:14;5.90;74.40
12229;DHT22;6177;52.402;9.800;2022-12-07T11:41:02;5.90;74.20
12229;DHT22;6177;52.402;9.800;2022-12-07T11:44:06;5.90;74.50
12229;DHT22;6177;52.402;9.800;2022-12-07T11:52:48;5.70;76.20
12229;DHT22;6177;52.402;9.800;2022-12-07T11:58:35;5.70;77.00
12229;DHT22;6177;52.402;9.800;2022-12-07T12:04:55;5.80;77.20
12229;DHT22;6177;52.402;9.800;2022-12-07T12:07:44;5.90;77.00
12229;DHT22;6177;52.402;9.800;2022-12-07T12:10:37;5.90;77.40
12229;DHT22;6177;52.402;9.800;2022-12-07T12:22:42;7.30;74.40
12229;DHT22;6177;52.402;9.800;2022-12-07T12:25:34;7.30;73.50
12229;DHT22;6177;52.402;9.800;2022-12-07T12:28:49;7.30;73.40
12229;DHT22;6177;52.402;9.800;2022-12-07T12:31:40;7.20;73.10
12229;DHT22;6177;52.402;9.800;2022-12-07T12:34:40;7.00;73.80
12229;DHT22;6177;52.402;9.800;2022-12-07T13:04:27;6.40;76.30
12229;DHT22;6177;52.402;9.800;2022-12-07T13:18:53;6.50;73.60
12229;DHT22;6177;52.402;9.800;2022-12-07T13:21:40;6.50;73.40
12229;DHT22;6177;52.402;9.800;2022-12-07T13:24:26;6.50;73.80
12229;DHT22;6177;52.402;9.800;2022-12-07T13:27:11;6.50;73.60
12229;DHT22;6177;52.402;9.800;2022-12-07T13:29:57;6.50;73.30
12229;DHT22;6177;52.402;9.800;2022-12-07T13:32:54;6.50;73.10
12229;DHT22;6177;52.402;9.800;2022-12-07T13:35:39;6.40;73.40
12229;DHT22;6177;52.402;9.800;2022-12-07T13:38:29;6.40;73.30
12229;DHT22;6177;52.402;9.800;2022-12-07T13:41:17;6.40;73.40
12229;DHT22;6177;52.402;9.800;2022-12-07T13:44:15;6.40;73.50
12229;DHT22;6177;52.402;9.800;2022-12-07T13:47:09;6.40;73.40
12229;DHT22;6177;52.402;9.800;2022-12-07T13:49:57;6.30;73.80
12229;DHT22;6177;52.402;9.800;2022-12-07T13:52:45;6.20;74.10
12229;DHT22;6177;52.402;9.800;2022-12-07T13:55:31;6.30;74.20
12229;DHT22;6177;52.402;9.800;2022-12-07T13:58:16;6.10;74.60
12229;DHT22;6177;52.402;9.800;2022-12-07T14:01:01;6.10;75.00
12229;DHT22;6177;52.402;9.800;2022-12-07T14:03:47;6.20;74.80
12229;DHT22;6177;52.402;9.800;2022-12-07T14:06:31;6.20;74.60
12229;DHT22;6177;52.402;9.800;2022-12-07T14:09:19;6.20;74.60
12229;DHT22;6177;52.402;9.800;2022-12-07T14:12:06;6.10;75.20
12229;DHT22;6177;52.402;9.800;2022-12-07T14:14:52;6.10;75.00
12229;DHT22;6177;52.402;9.800;2022-12-07T14:17:50;6.20;75.10
12229;DHT22;6177;52.402;9.800;2022-12-07T14:20:40;6.10;75.20
12229;DHT22;6177;52.402;9.800;2022-12-07T14:23:26;6.00;75.60
12229;DHT22;6177;52.402;9.800;2022-12-07T14:26:14;6.10;75.10
12229;DHT22;6177;52.402;9.800;2022-12-07T14:29:21;6.10;75.00
12229;DHT22;6177;52.402;9.800;2022-12-07T14:35:10;6.00;75.30
12229;DHT22;6177;52.402;9.800;2022-12-07T14:37:56;6.00;75.10
12229;DHT22;6177;52.402;9.800;2022-12-07T14:40:40;6.00;75.10
12229;DHT22;6177;52.402;9.800;2022-12-07T14:43:25;5.80;75.50
12229;DHT22;6177;52.402;9.800;2022-12-07T14:46:10;5.90;75.60
12229;DHT22;6177;52.402;9.800;2022-12-07T14:48:55;5.80;75.60
12229;DHT22;6177;52.402;9.800;2022-12-07T14:51:42;5.80;75.50
12229;DHT22;6177;52.402;9.800;2022-12-07T14:54:31;5.70;75.50
12229;DHT22;6177;52.402;9.800;2022-12-07T14:57:16;5.70;75.70
12229;DHT22;6177;52.402;9.800;2022-12-07T15:00:02;5.60;76.00
12229;DHT22;6177;52.402;9.800;2022-12-07T15:02:48;5.60;76.30
12229;DHT22;6177;52.402;9.800;2022-12-07T15:05:34;5.70;75.70
12229;DHT22;6177;52.402;9.800;2022-12-07T15:08:20;5.70;75.60
12229;DHT22;6177;52.402;9.800;2022-12-07T15:11:04;5.70;75.50
12229;DHT22;6177;52.402;9.800;2022-12-07T15:13:49;5.60;75.80
12229;DHT22;6177;52.402;9.800;2022-12-07T15:16:52;5.50;76.00
12229;DHT22;6177;52.402;9.800;2022-12-07T15:19:37;5.50;76.40
12229;DHT22;6177;52.402;9.800;2022-12-07T15:22:22;5.40;76.60
12229;DHT22;6177;52.402;9.800;2022-12-07T15:25:12;5.40;76.80
12229;DHT22;6177;52.402;9.800;2022-12-07T15:27:57;5.30;77.10
12229;DHT22;6177;52.402;9.800;2022-12-07T15:30:43;5.30;77.20
12229;DHT22;6177;52.402;9.800;2022-12-07T15:33:28;5.40;77.10
12229;DHT22;6177;52.402;9.800;2022-12-07T15:36:22;5.30;77.50
12229;DHT22;6177;52.402;9.800;2022-12-07T15:39:08;5.30;77.60
12229;DHT22;6177;52.402;9.800;2022-12-07T15:41:54;5.20;77.60
12229;DHT22;6177;52.402;9.800;2022-12-07T15:44:38;5.30;77.60
12229;DHT22;6177;52.402;9.800;2022-12-07T15:47:43;5.20;77.70
12229;DHT22;6177;52.402;9.800;2022-12-07T15:50:31;5.10;77.70
12229;DHT22;6177;52.402;9.800;2022-12-07T15:53:17;5.10;78.00
12229;DHT22;6177;52.402;9.800;2022-12-07T15:56:07;5.10;78.00
12229;DHT22;6177;52.402;9.800;2022-12-07T15:58:52;5.00;78.20
12229;DHT22;6177;52.402;9.800;2022-12-07T16:01:37;5.00;78.20
12229;DHT22;6177;52.402;9.800;2022-12-07T16:04:23;5.00;78.40
12229;DHT22;6177;52.402;9.800;2022-12-07T16:07:08;5.00;78.60
12229;DHT22;6177;52.402;9.800;2022-12-07T16:09:54;5.00;78.60
12229;DHT22;6177;52.402;9.800;2022-12-07T16:12:39;5.10;78.40
12229;DHT22;6177;52.402;9.800;2022-12-07T16:15:24;5.10;78.30
12229;DHT22;6177;52.402;9.800;2022-12-07T16:18:11;5.20;78.20
12229;DHT22;6177;52.402;9.800;2022-12-07T16:20:55;5.20;78.20
12229;DHT22;6177;52.402;9.800;2022-12-07T16:23:41;5.20;78.10
12229;DHT22;6177;52.402;9.800;2022-12-07T16:26:26;5.20;78.50
12229;DHT22;6177;52.402;9.800;2022-12-07T16:29:12;5.20;78.70
12229;DHT22;6177;52.402;9.800;2022-12-07T16:31:58;5.20;78.60
12229;DHT22;6177;52.402;9.800;2022-12-07T16:34:42;5.30;78.50
12229;DHT22;6177;52.402;9.800;2022-12-07T16:37:28;5.30;78.60
12229;DHT22;6177;52.402;9.800;2022-12-07T16:40:12;5.30;78.50
12229;DHT22;6177;52.402;9.800;2022-12-07T16:42:57;5.30;78.60
12229;DHT22;6177;52.402;9.800;2022-12-07T16:45:42;5.30;78.60
12229;DHT22;6177;52.402;9.800;2022-12-07T16:48:28;5.30;78.70
12229;DHT22;6177;52.402;9.800;2022-12-07T16:51:14;5.30;78.90
12229;DHT22;6177;52.402;9.800;2022-12-07T16:53:58;5.40;78.50
12229;DHT22;6177;52.402;9.800;2022-12-07T16:56:44;5.30;78.60
12229;DHT22;6177;52.402;9.800;2022-12-07T16:59:28;5.30;78.50
12229;DHT22;6177;52.402;9.800;2022-12-07T17:02:14;5.40;78.10
12229;DHT22;6177;52.402;9.800;2022-12-07T17:04:58;5.40;78.40
12229;DHT22;6177;52.402;9.800;2022-12-07T17:07:43;5.30;78.40
12229;DHT22;6177;52.402;9.800;2022-12-07T17:10:29;5.20;78.70
12229;DHT22;6177;52.402;9.800;2022-12-07T17:13:15;5.20;79.40
12229;DHT22;6177;52.402;9.800;2022-12-07T17:16:18;5.20;79.30
12229;DHT22;6177;52.402;9.800;2022-12-07T17:19:07;5.30;79.30
12229;DHT22;6177;52.402;9.800;2022-12-07T17:21:53;5.30;79.70
12229;DHT22;6177;52.402;9.800;2022-12-07T17:24:38;5.30;79.40
12229;DHT22;6177;52.402;9.800;2022-12-07T17:27:24;5.30;79.40
12229;DHT22;6177;52.402;9.800;2022-12-07T17:30:09;5.30;79.20
12229;DHT22;6177;52.402;9.800;2022-12-07T17:32:55;5.40;78.40
12229;DHT22;6177;52.402;9.800;2022-12-07T17:35:39;5.30;77.70
12229;DHT22;6177;52.402;9.800;2022-12-07T17:38:24;5.20;77.20
12229;DHT22;6177;52.402;9.800;2022-12-07T17:41:24;5.00;77.10
12229;DHT22;6177;52.402;9.800;2022-12-07T17:44:28;4.80;77.20
12229;DHT22;6177;52.402;9.800;2022-12-07T17:47:13;4.60;78.00
12229;DHT22;6177;52.402;9.800;2022-12-07T17:50:01;4.40;78.20
12229;DHT22;6177;52.402;9.800;2022-12-07T17:52:45;4.30;78.70
12229;DHT22;6177;52.402;9.800;2022-12-07T17:55:52;4.20;79.20
12229;DHT22;6177;52.402;9.800;2022-12-07T17:58:37;4.10;79.60
12229;DHT22;6177;52.402;9.800;2022-12-07T18:01:23;4.10;79.90
12229;DHT22;6177;52.402;9.800;2022-12-07T18:04:08;4.10;79.90
12229;DHT22;6177;52.402;9.800;2022-12-07T18:06:53;4.00;80.20
12229;DHT22;6177;52.402;9.800;2022-12-07T18:09:39;3.90;80.40
12229;DHT22;6177;52.402;9.800;2022-12-07T18:12:23;3.90;80.60
12229;DHT22;6177;52.402;9.800;2022-12-07T18:15:09;3.90;80.80
12229;DHT22;6177;52.402;9.800;2022-12-07T18:17:57;3.90;81.10
12229;DHT22;6177;52.402;9.800;2022-12-07T18:20:41;3.90;81.40
12229;DHT22;6177;52.402;9.800;2022-12-07T18:23:26;4.00;81.50
12229;DHT22;6177;52.402;9.800;2022-12-07T18:26:11;4.00;81.60
12229;DHT22;6177;52.402;9.800;2022-12-07T18:29:00;4.00;81.70
12229;DHT22;6177;52.402;9.800;2022-12-07T18:31:46;4.00;82.00
12229;DHT22;6177;52.402;9.800;2022-12-07T18:34:32;4.00;82.10
12229;DHT22;6177;52.402;9.800;2022-12-07T18:37:16;4.00;82.10
12229;DHT22;6177;52.402;9.800;2022-12-07T18:40:01;4.00;81.90
12229;DHT22;6177;52.402;9.800;2022-12-07T18:42:46;4.00;81.90
12229;DHT22;6177;52.402;9.800;2022-12-07T18:45:36;4.00;82.00
12229;DHT22;6177;52.402;9.800;2022-12-07T18:48:22;4.00;82.10
12229;DHT22;6177;52.402;9.800;2022-12-07T18:51:10;4.00;82.20
12229;DHT22;6177;52.402;9.800;2022-12-07T18:53:56;4.00;82.30
12229;DHT22;6177;52.402;9.800;2022-12-07T18:56:41;3.90;82.40
12229;DHT22;6177;52.402;9.800;2022-12-07T18:59:26;3.90;82.30
12229;DHT22;6177;52.402;9.800;2022-12-07T19:02:30;4.00;82.60
12229;DHT22;6177;52.402;9.800;2022-12-07T19:05:15;4.00;82.40
12229;DHT22;6177;52.402;9.800;2022-12-07T19:08:01;4.00;82.50
12229;DHT22;6177;52.402;9.800;2022-12-07T19:10:45;4.00;82.60
12229;DHT22;6177;52.402;9.800;2022-12-07T19:13:30;4.10;82.60
12229;DHT22;6177;52.402;9.800;2022-12-07T19:16:15;4.20;82.40
12229;DHT22;6177;52.402;9.800;2022-12-07T19:19:00;4.30;81.90
12229;DHT22;6177;52.402;9.800;2022-12-07T19:21:46;4.40;82.10
12229;DHT22;6177;52.402;9.800;2022-12-07T19:24:30;4.40;82.00
12229;DHT22;6177;52.402;9.800;2022-12-07T19:27:16;4.50;81.90
12229;DHT22;6177;52.402;9.800;2022-12-07T19:30:02;4.60;81.80
12229;DHT22;6177;52.402;9.800;2022-12-07T19:32:46;4.60;81.90
12229;DHT22;6177;52.402;9.800;2022-12-07T19:35:31;4.70;81.80
12229;DHT22;6177;52.402;9.800;2022-12-07T19:38:16;4.70;81.90
12229;DHT22;6177;52.402;9.800;2022-12-07T19:41:10;4.70;81.70
12229;DHT22;6177;52.402;9.800;2022-12-07T19:44:17;4.70;81.90
12229;DHT22;6177;52.402;9.800;2022-12-07T19:47:03;4.80;80.80
12229;DHT22;6177;52.402;9.800;2022-12-07T19:49:48;4.80;80.90
12229;DHT22;6177;52.402;9.800;2022-12-07T19:52:33;4.80;80.70
12229;DHT22;6177;52.402;9.800;2022-12-07T19:55:18;4.90;80.10
12229;DHT22;6177;52.402;9.800;2022-12-07T19:58:03;4.90;79.90
12229;DHT22;6177;52.402;9.800;2022-12-07T20:00:49;4.90;79.80
12229;DHT22;6177;52.402;9.800;2022-12-07T20:03:33;4.90;79.90
12229;DHT22;6177;52.402;9.800;2022-12-07T20:06:19;5.00;79.00
12229;DHT22;6177;52.402;9.800;2022-12-07T20:09:05;5.00;78.90
12229;DHT22;6177;52.402;9.800;2022-12-07T20:11:50;5.00;78.90
12229;DHT22;6177;52.402;9.800;2022-12-07T20:14:53;5.00;78.90
12229;DHT22;6177;52.402;9.800;2022-12-07T20:17:38;5.00;78.50
12229;DHT22;6177;52.402;9.800;2022-12-07T20:20:23;5.00;78.70